sensor_id;sensor_type;location;lat;lon;timestamp;P1;durP1;ratioP1;P2;durP2;ratioP2
39858;SDS011;25528;47.810;12.960;2022-08-02T00:02:25;2.72;;;2.47;;
39858;SDS011;25528;47.810;12.960;2022-08-02T00:04:50;2.60;;;2.30;;
39858;SDS011;25528;47.810;12.960;2022-08-02T00:07:16;2.93;;;2.10;;
39858;SDS011;25528;47.810;12.960;2022-08-02T00:09:42;2.60;;;2.20;;
39858;SDS011;25528;47.810;12.960;2022-08-02T00:12:09;2.83;;;2.08;;
39858;SDS011;25528;47.810;12.960;2022-08-02T00:14:35;3.30;;;2.30;;
39858;SDS011;25528;47.810;12.960;2022-08-02T00:17:01;2.35;;;2.00;;
39858;SDS011;25528;47.810;12.960;2022-08-02T00:19:27;2.33;;;2.13;;
39858;SDS011;25528;47.810;12.960;2022-08-02T00:21:52;2.60;;;2.40;;
39858;SDS011;25528;47.810;12.960;2022-08-02T00:24:18;2.60;;;2.38;;
39858;SDS011;25528;47.810;12.960;2022-08-02T00:26:43;3.53;;;2.33;;
39858;SDS011;25528;47.810;12.960;2022-08-02T00:29:09;2.73;;;2.53;;
39858;SDS011;25528;47.810;12.960;2022-08-02T00:31:35;2.97;;;2.42;;
39858;SDS011;25528;47.810;12.960;2022-08-02T00:34:00;2.50;;;2.30;;
39858;SDS011;25528;47.810;12.960;2022-08-02T00:36:26;2.43;;;2.23;;
39858;SDS011;25528;47.810;12.960;2022-08-02T00:38:52;3.17;;;2.58;;
39858;SDS011;25528;47.810;12.960;2022-08-02T00:41:18;2.90;;;2.30;;
39858;SDS011;25528;47.810;12.960;2022-08-02T00:43:45;2.95;;;2.60;;
39858;SDS011;25528;47.810;12.960;2022-08-02T00:46:12;2.70;;;2.50;;
39858;SDS011;25528;47.810;12.960;2022-08-02T00:48:38;2.60;;;2.30;;
39858;SDS011;25528;47.810;12.960;2022-08-02T00:51:04;3.13;;;2.40;;
39858;SDS011;25528;47.810;12.960;2022-08-02T00:53:30;2.72;;;2.38;;
39858;SDS011;25528;47.810;12.960;2022-08-02T00:55:56;2.80;;;2.50;;
39858;SDS011;25528;47.810;12.960;2022-08-02T00:58:22;2.70;;;2.50;;
39858;SDS011;25528;47.810;12.960;2022-08-02T01:00:47;3.70;;;2.40;;
39858;SDS011;25528;47.810;12.960;2022-08-02T01:03:13;2.90;;;2.60;;
39858;SDS011;25528;47.810;12.960;2022-08-02T01:05:39;2.70;;;2.37;;
39858;SDS011;25528;47.810;12.960;2022-08-02T01:08:05;2.78;;;2.50;;
39858;SDS011;25528;47.810;12.960;2022-08-02T01:10:31;2.70;;;2.28;;
39858;SDS011;25528;47.810;12.960;2022-08-02T01:12:56;2.60;;;2.30;;
39858;SDS011;25528;47.810;12.960;2022-08-02T01:15:22;2.30;;;2.10;;
39858;SDS011;25528;47.810;12.960;2022-08-02T01:17:53;2.65;;;2.40;;
39858;SDS011;25528;47.810;12.960;2022-08-02T01:26:17;2.55;;;2.30;;
39858;SDS011;25528;47.810;12.960;2022-08-02T01:29:16;2.53;;;2.33;;
39858;SDS011;25528;47.810;12.960;2022-08-02T01:31:56;2.60;;;2.40;;
39858;SDS011;25528;47.810;12.960;2022-08-02T01:34:36;2.40;;;2.20;;
39858;SDS011;25528;47.810;12.960;2022-08-02T01:37:08;2.38;;;2.17;;
39858;SDS011;25528;47.810;12.960;2022-08-02T01:39:42;2.33;;;2.13;;
39858;SDS011;25528;47.810;12.960;2022-08-02T01:42:10;2.40;;;2.20;;
39858;SDS011;25528;47.810;12.960;2022-08-02T01:44:37;2.58;;;2.38;;
39858;SDS011;25528;47.810;12.960;2022-08-02T01:47:10;2.38;;;2.17;;
39858;SDS011;25528;47.810;12.960;2022-08-02T01:49:41;2.25;;;1.98;;
39858;SDS011;25528;47.810;12.960;2022-08-02T01:52:11;2.60;;;2.10;;
39858;SDS011;25528;47.810;12.960;2022-08-02T01:54:51;2.35;;;2.03;;
39858;SDS011;25528;47.810;12.960;2022-08-02T01:57:39;2.40;;;2.20;;
39858;SDS011;25528;47.810;12.960;2022-08-02T02:00:09;2.80;;;2.20;;
39858;SDS011;25528;47.810;12.960;2022-08-02T02:02:37;2.30;;;2.10;;
39858;SDS011;25528;47.810;12.960;2022-08-02T02:05:06;2.28;;;1.83;;
39858;SDS011;25528;47.810;12.960;2022-08-02T02:07:38;2.83;;;2.20;;
39858;SDS011;25528;47.810;12.960;2022-08-02T02:10:06;2.47;;;2.28;;
39858;SDS011;25528;47.810;12.960;2022-08-02T02:12:35;2.40;;;2.20;;
39858;SDS011;25528;47.810;12.960;2022-08-02T02:15:03;3.00;;;2.35;;
39858;SDS011;25528;47.810;12.960;2022-08-02T02:17:30;2.35;;;2.15;;
39858;SDS011;25528;47.810;12.960;2022-08-02T02:19:57;2.35;;;1.92;;
39858;SDS011;25528;47.810;12.960;2022-08-02T02:22:25;2.15;;;1.95;;
39858;SDS011;25528;47.810;12.960;2022-08-02T02:24:51;2.30;;;2.03;;
39858;SDS011;25528;47.810;12.960;2022-08-02T02:27:16;2.78;;;2.08;;
39858;SDS011;25528;47.810;12.960;2022-08-02T02:29:45;2.80;;;2.17;;
39858;SDS011;25528;47.810;12.960;2022-08-02T02:32:13;3.35;;;1.90;;
39858;SDS011;25528;47.810;12.960;2022-08-02T02:34:43;2.75;;;2.00;;
39858;SDS011;25528;47.810;12.960;2022-08-02T02:37:28;2.30;;;2.10;;
39858;SDS011;25528;47.810;12.960;2022-08-02T02:39:56;2.33;;;2.10;;
39858;SDS011;25528;47.810;12.960;2022-08-02T02:42:25;2.28;;;2.05;;
39858;SDS011;25528;47.810;12.960;2022-08-02T02:44:54;2.50;;;2.30;;
39858;SDS011;25528;47.810;12.960;2022-08-02T02:47:22;2.30;;;2.10;;
39858;SDS011;25528;47.810;12.960;2022-08-02T02:49:49;2.50;;;2.30;;
39858;SDS011;25528;47.810;12.960;2022-08-02T02:52:16;2.50;;;2.30;;
39858;SDS011;25528;47.810;12.960;2022-08-02T02:54:44;2.35;;;2.15;;
39858;SDS011;25528;47.810;12.960;2022-08-02T02:57:13;2.30;;;2.10;;
39858;SDS011;25528;47.810;12.960;2022-08-02T02:59:39;2.53;;;2.10;;
39858;SDS011;25528;47.810;12.960;2022-08-02T03:02:06;3.28;;;2.10;;
39858;SDS011;25528;47.810;12.960;2022-08-02T03:04:34;2.20;;;2.00;;
39858;SDS011;25528;47.810;12.960;2022-08-02T03:07:01;2.27;;;2.03;;
39858;SDS011;25528;47.810;12.960;2022-08-02T03:09:27;2.10;;;1.80;;
39858;SDS011;25528;47.810;12.960;2022-08-02T03:11:53;3.28;;;1.90;;
39858;SDS011;25528;47.810;12.960;2022-08-02T03:14:20;2.90;;;1.95;;
39858;SDS011;25528;47.810;12.960;2022-08-02T03:16:49;3.50;;;2.28;;
39858;SDS011;25528;47.810;12.960;2022-08-02T03:19:17;6.20;;;2.30;;
39858;SDS011;25528;47.810;12.960;2022-08-02T03:21:44;3.38;;;2.50;;
39858;SDS011;25528;47.810;12.960;2022-08-02T03:24:12;4.05;;;2.30;;
39858;SDS011;25528;47.810;12.960;2022-08-02T03:26:38;4.70;;;2.70;;
39858;SDS011;25528;47.810;12.960;2022-08-02T03:29:04;6.15;;;2.42;;
39858;SDS011;25528;47.810;12.960;2022-08-02T03:31:30;10.00;;;2.88;;
39858;SDS011;25528;47.810;12.960;2022-08-02T03:33:56;5.60;;;2.70;;
39858;SDS011;25528;47.810;12.960;2022-08-02T03:36:24;5.65;;;2.60;;
39858;SDS011;25528;47.810;12.960;2022-08-02T03:38:53;6.28;;;2.88;;
39858;SDS011;25528;47.810;12.960;2022-08-02T03:41:19;7.50;;;2.83;;
39858;SDS011;25528;47.810;12.960;2022-08-02T03:43:47;6.60;;;2.70;;
39858;SDS011;25528;47.810;12.960;2022-08-02T03:46:14;6.45;;;3.10;;
39858;SDS011;25528;47.810;12.960;2022-08-02T03:48:42;11.07;;;2.70;;
39858;SDS011;25528;47.810;12.960;2022-08-02T03:51:09;5.80;;;2.65;;
39858;SDS011;25528;47.810;12.960;2022-08-02T03:53:35;4.90;;;2.83;;
39858;SDS011;25528;47.810;12.960;2022-08-02T03:56:02;4.72;;;3.10;;
39858;SDS011;25528;47.810;12.960;2022-08-02T03:58:29;5.40;;;2.70;;
39858;SDS011;25528;47.810;12.960;2022-08-02T04:00:55;6.57;;;2.80;;
39858;SDS011;25528;47.810;12.960;2022-08-02T04:03:22;4.55;;;2.88;;
39858;SDS011;25528;47.810;12.960;2022-08-02T04:05:47;7.00;;;2.78;;
39858;SDS011;25528;47.810;12.960;2022-08-02T04:08:14;6.30;;;2.97;;
39858;SDS011;25528;47.810;12.960;2022-08-02T04:10:40;5.43;;;2.80;;
39858;SDS011;25528;47.810;12.960;2022-08-02T04:13:25;7.38;;;3.03;;
39858;SDS011;25528;47.810;12.960;2022-08-02T04:15:54;11.52;;;3.03;;
39858;SDS011;25528;47.810;12.960;2022-08-02T04:18:24;7.13;;;3.00;;
39858;SDS011;25528;47.810;12.960;2022-08-02T04:20:56;10.18;;;2.80;;
39858;SDS011;25528;47.810;12.960;2022-08-02T04:23:24;8.98;;;2.67;;
39858;SDS011;25528;47.810;12.960;2022-08-02T04:25:51;6.82;;;2.80;;
39858;SDS011;25528;47.810;12.960;2022-08-02T04:28:18;6.00;;;3.10;;
39858;SDS011;25528;47.810;12.960;2022-08-02T04:30:45;8.10;;;2.88;;
39858;SDS011;25528;47.810;12.960;2022-08-02T04:33:12;4.95;;;2.80;;
39858;SDS011;25528;47.810;12.960;2022-08-02T04:35:38;6.80;;;2.70;;
39858;SDS011;25528;47.810;12.960;2022-08-02T04:38:04;10.88;;;3.50;;
39858;SDS011;25528;47.810;12.960;2022-08-02T04:40:30;7.07;;;2.90;;
39858;SDS011;25528;47.810;12.960;2022-08-02T04:42:55;10.15;;;3.20;;
39858;SDS011;25528;47.810;12.960;2022-08-02T04:45:21;9.23;;;3.40;;
39858;SDS011;25528;47.810;12.960;2022-08-02T04:47:49;7.68;;;3.05;;
39858;SDS011;25528;47.810;12.960;2022-08-02T04:50:14;11.38;;;3.38;;
39858;SDS011;25528;47.810;12.960;2022-08-02T04:52:40;7.67;;;3.23;;
39858;SDS011;25528;47.810;12.960;2022-08-02T04:55:05;7.63;;;2.90;;
39858;SDS011;25528;47.810;12.960;2022-08-02T04:57:31;9.25;;;2.97;;
39858;SDS011;25528;47.810;12.960;2022-08-02T05:00:16;4.75;;;2.78;;
39858;SDS011;25528;47.810;12.960;2022-08-02T05:02:41;6.78;;;2.92;;
39858;SDS011;25528;47.810;12.960;2022-08-02T05:05:07;6.82;;;2.70;;
39858;SDS011;25528;47.810;12.960;2022-08-02T05:07:33;7.97;;;3.00;;
39858;SDS011;25528;47.810;12.960;2022-08-02T05:09:58;7.07;;;2.80;;
39858;SDS011;25528;47.810;12.960;2022-08-02T05:12:24;6.60;;;2.80;;
39858;SDS011;25528;47.810;12.960;2022-08-02T05:14:50;5.47;;;2.80;;
39858;SDS011;25528;47.810;12.960;2022-08-02T05:17:15;6.60;;;2.70;;
39858;SDS011;25528;47.810;12.960;2022-08-02T05:19:41;5.23;;;2.80;;
39858;SDS011;25528;47.810;12.960;2022-08-02T05:22:07;6.47;;;2.90;;
39858;SDS011;25528;47.810;12.960;2022-08-02T05:24:32;6.15;;;2.97;;
39858;SDS011;25528;47.810;12.960;2022-08-02T05:26:58;4.53;;;2.63;;
39858;SDS011;25528;47.810;12.960;2022-08-02T05:29:23;6.10;;;3.07;;
39858;SDS011;25528;47.810;12.960;2022-08-02T05:31:49;5.82;;;2.83;;
39858;SDS011;25528;47.810;12.960;2022-08-02T05:34:15;6.90;;;3.00;;
39858;SDS011;25528;47.810;12.960;2022-08-02T05:36:40;6.00;;;2.87;;
39858;SDS011;25528;47.810;12.960;2022-08-02T05:39:06;5.45;;;2.70;;
39858;SDS011;25528;47.810;12.960;2022-08-02T05:41:32;5.77;;;3.07;;
39858;SDS011;25528;47.810;12.960;2022-08-02T05:43:58;6.95;;;2.97;;
39858;SDS011;25528;47.810;12.960;2022-08-02T05:46:23;5.32;;;3.08;;
39858;SDS011;25528;47.810;12.960;2022-08-02T05:48:49;4.27;;;2.77;;
39858;SDS011;25528;47.810;12.960;2022-08-02T05:51:18;5.93;;;3.17;;
39858;SDS011;25528;47.810;12.960;2022-08-02T05:53:50;4.80;;;2.78;;
39858;SDS011;25528;47.810;12.960;2022-08-02T05:59:12;5.63;;;2.85;;
39858;SDS011;25528;47.810;12.960;2022-08-02T06:02:02;5.28;;;2.95;;
39858;SDS011;25528;47.810;12.960;2022-08-02T06:04:32;6.28;;;2.97;;
39858;SDS011;25528;47.810;12.960;2022-08-02T06:07:12;7.65;;;3.20;;
39858;SDS011;25528;47.810;12.960;2022-08-02T06:09:40;6.17;;;3.27;;
39858;SDS011;25528;47.810;12.960;2022-08-02T06:12:07;7.40;;;3.13;;
39858;SDS011;25528;47.810;12.960;2022-08-02T06:14:36;7.50;;;3.50;;
39858;SDS011;25528;47.810;12.960;2022-08-02T06:17:04;8.73;;;3.72;;
39858;SDS011;25528;47.810;12.960;2022-08-02T06:19:30;7.80;;;3.53;;
39858;SDS011;25528;47.810;12.960;2022-08-02T06:21:57;7.70;;;3.90;;
39858;SDS011;25528;47.810;12.960;2022-08-02T06:24:39;8.82;;;4.13;;
39858;SDS011;25528;47.810;12.960;2022-08-02T06:27:09;11.77;;;4.32;;
39858;SDS011;25528;47.810;12.960;2022-08-02T06:29:38;12.30;;;4.78;;
39858;SDS011;25528;47.810;12.960;2022-08-02T06:32:06;14.05;;;4.53;;
39858;SDS011;25528;47.810;12.960;2022-08-02T06:34:36;10.88;;;4.63;;
39858;SDS011;25528;47.810;12.960;2022-08-02T06:37:08;16.52;;;5.22;;
39858;SDS011;25528;47.810;12.960;2022-08-02T06:39:51;11.98;;;4.68;;
39858;SDS011;25528;47.810;12.960;2022-08-02T06:42:25;14.70;;;4.47;;
39858;SDS011;25528;47.810;12.960;2022-08-02T06:45:09;13.52;;;4.75;;
39858;SDS011;25528;47.810;12.960;2022-08-02T06:47:34;11.70;;;4.63;;
39858;SDS011;25528;47.810;12.960;2022-08-02T06:50:00;13.75;;;4.68;;
39858;SDS011;25528;47.810;12.960;2022-08-02T06:52:26;12.33;;;4.60;;
39858;SDS011;25528;47.810;12.960;2022-08-02T06:54:55;14.13;;;4.72;;
39858;SDS011;25528;47.810;12.960;2022-08-02T06:57:22;12.65;;;4.50;;
39858;SDS011;25528;47.810;12.960;2022-08-02T06:59:47;10.23;;;4.30;;
39858;SDS011;25528;47.810;12.960;2022-08-02T07:02:13;12.18;;;4.10;;
39858;SDS011;25528;47.810;12.960;2022-08-02T07:04:39;14.38;;;4.40;;
39858;SDS011;25528;47.810;12.960;2022-08-02T07:07:04;12.03;;;4.30;;
39858;SDS011;25528;47.810;12.960;2022-08-02T07:09:30;16.83;;;4.78;;
39858;SDS011;25528;47.810;12.960;2022-08-02T07:11:56;17.20;;;4.40;;
39858;SDS011;25528;47.810;12.960;2022-08-02T07:14:21;18.53;;;5.67;;
39858;SDS011;25528;47.810;12.960;2022-08-02T07:16:47;20.70;;;6.05;;
39858;SDS011;25528;47.810;12.960;2022-08-02T07:19:13;22.30;;;6.15;;
39858;SDS011;25528;47.810;12.960;2022-08-02T07:21:38;21.43;;;6.03;;
39858;SDS011;25528;47.810;12.960;2022-08-02T07:24:04;20.85;;;6.13;;
39858;SDS011;25528;47.810;12.960;2022-08-02T07:26:29;24.20;;;6.43;;
39858;SDS011;25528;47.810;12.960;2022-08-02T07:28:55;22.70;;;6.60;;
39858;SDS011;25528;47.810;12.960;2022-08-02T07:31:22;22.75;;;6.45;;
39858;SDS011;25528;47.810;12.960;2022-08-02T07:33:48;25.13;;;6.80;;
39858;SDS011;25528;47.810;12.960;2022-08-02T07:36:13;25.05;;;6.07;;
39858;SDS011;25528;47.810;12.960;2022-08-02T07:38:39;28.75;;;6.82;;
39858;SDS011;25528;47.810;12.960;2022-08-02T07:41:05;29.03;;;6.70;;
39858;SDS011;25528;47.810;12.960;2022-08-02T07:43:30;28.60;;;6.57;;
39858;SDS011;25528;47.810;12.960;2022-08-02T07:45:56;28.20;;;6.73;;
39858;SDS011;25528;47.810;12.960;2022-08-02T07:48:22;27.23;;;6.53;;
39858;SDS011;25528;47.810;12.960;2022-08-02T07:50:47;27.17;;;7.63;;
39858;SDS011;25528;47.810;12.960;2022-08-02T07:53:13;32.57;;;7.80;;
39858;SDS011;25528;47.810;12.960;2022-08-02T07:55:39;26.45;;;6.93;;
39858;SDS011;25528;47.810;12.960;2022-08-02T07:58:04;26.53;;;7.03;;
39858;SDS011;25528;47.810;12.960;2022-08-02T08:00:30;25.17;;;7.15;;
39858;SDS011;25528;47.810;12.960;2022-08-02T08:02:56;31.57;;;7.60;;
39858;SDS011;25528;47.810;12.960;2022-08-02T08:05:23;30.88;;;7.20;;
39858;SDS011;25528;47.810;12.960;2022-08-02T08:07:48;24.50;;;6.55;;
39858;SDS011;25528;47.810;12.960;2022-08-02T08:10:14;24.97;;;7.20;;
39858;SDS011;25528;47.810;12.960;2022-08-02T08:12:40;22.37;;;6.77;;
39858;SDS011;25528;47.810;12.960;2022-08-02T08:15:05;24.30;;;6.93;;
39858;SDS011;25528;47.810;12.960;2022-08-02T08:17:31;22.52;;;6.75;;
39858;SDS011;25528;47.810;12.960;2022-08-02T08:19:57;27.00;;;7.00;;
39858;SDS011;25528;47.810;12.960;2022-08-02T08:22:23;35.40;;;7.43;;
39858;SDS011;25528;47.810;12.960;2022-08-02T08:24:48;43.15;;;7.78;;
39858;SDS011;25528;47.810;12.960;2022-08-02T08:27:15;56.73;;;9.17;;
39858;SDS011;25528;47.810;12.960;2022-08-02T08:29:42;36.50;;;7.72;;
39858;SDS011;25528;47.810;12.960;2022-08-02T08:32:08;40.00;;;7.60;;
39858;SDS011;25528;47.810;12.960;2022-08-02T08:34:34;44.00;;;7.70;;
39858;SDS011;25528;47.810;12.960;2022-08-02T08:37:00;40.28;;;8.02;;
39858;SDS011;25528;47.810;12.960;2022-08-02T08:39:27;39.00;;;7.15;;
39858;SDS011;25528;47.810;12.960;2022-08-02T08:41:53;35.80;;;6.95;;
39858;SDS011;25528;47.810;12.960;2022-08-02T08:44:19;33.88;;;6.85;;
39858;SDS011;25528;47.810;12.960;2022-08-02T08:46:45;32.10;;;6.50;;
39858;SDS011;25528;47.810;12.960;2022-08-02T08:49:46;25.02;;;5.95;;
39858;SDS011;25528;47.810;12.960;2022-08-02T08:52:09;25.20;;;5.75;;
39858;SDS011;25528;47.810;12.960;2022-08-02T08:54:36;22.42;;;5.30;;
39858;SDS011;25528;47.810;12.960;2022-08-02T08:57:05;24.10;;;4.70;;
39858;SDS011;25528;47.810;12.960;2022-08-02T08:59:32;16.40;;;4.60;;
39858;SDS011;25528;47.810;12.960;2022-08-02T09:01:57;19.00;;;4.53;;
39858;SDS011;25528;47.810;12.960;2022-08-02T09:04:24;18.77;;;4.28;;
39858;SDS011;25528;47.810;12.960;2022-08-02T09:06:50;14.45;;;4.00;;
39858;SDS011;25528;47.810;12.960;2022-08-02T09:09:16;16.30;;;4.50;;
39858;SDS011;25528;47.810;12.960;2022-08-02T09:11:42;16.08;;;4.75;;
39858;SDS011;25528;47.810;12.960;2022-08-02T09:14:08;17.15;;;4.30;;
39858;SDS011;25528;47.810;12.960;2022-08-02T09:22:05;16.52;;;4.40;;
39858;SDS011;25528;47.810;12.960;2022-08-02T09:24:43;15.68;;;4.43;;
39858;SDS011;25528;47.810;12.960;2022-08-02T09:27:14;14.55;;;4.32;;
39858;SDS011;25528;47.810;12.960;2022-08-02T09:29:44;13.57;;;4.53;;
39858;SDS011;25528;47.810;12.960;2022-08-02T09:32:14;14.23;;;4.47;;
39858;SDS011;25528;47.810;12.960;2022-08-02T09:34:48;15.77;;;4.25;;
39858;SDS011;25528;47.810;12.960;2022-08-02T09:37:28;11.50;;;4.40;;
39858;SDS011;25528;47.810;12.960;2022-08-02T09:39:56;10.75;;;4.13;;
39858;SDS011;25528;47.810;12.960;2022-08-02T09:42:26;10.90;;;4.03;;
39858;SDS011;25528;47.810;12.960;2022-08-02T09:44:57;10.43;;;4.20;;
39858;SDS011;25528;47.810;12.960;2022-08-02T09:47:24;11.50;;;3.80;;
39858;SDS011;25528;47.810;12.960;2022-08-02T09:49:52;10.25;;;3.78;;
39858;SDS011;25528;47.810;12.960;2022-08-02T09:52:28;11.35;;;4.20;;
39858;SDS011;25528;47.810;12.960;2022-08-02T09:54:55;13.70;;;4.13;;
39858;SDS011;25528;47.810;12.960;2022-08-02T09:57:28;10.43;;;4.15;;
39858;SDS011;25528;47.810;12.960;2022-08-02T09:59:57;9.90;;;3.72;;
39858;SDS011;25528;47.810;12.960;2022-08-02T10:02:23;10.23;;;3.75;;
39858;SDS011;25528;47.810;12.960;2022-08-02T10:04:50;10.93;;;4.05;;
39858;SDS011;25528;47.810;12.960;2022-08-02T10:07:16;13.35;;;3.65;;
39858;SDS011;25528;47.810;12.960;2022-08-02T10:09:43;16.02;;;4.53;;
39858;SDS011;25528;47.810;12.960;2022-08-02T10:12:10;23.50;;;4.85;;
39858;SDS011;25528;47.810;12.960;2022-08-02T10:14:37;27.15;;;4.55;;
39858;SDS011;25528;47.810;12.960;2022-08-02T10:17:03;22.48;;;4.70;;
39858;SDS011;25528;47.810;12.960;2022-08-02T10:19:30;20.25;;;4.30;;
39858;SDS011;25528;47.810;12.960;2022-08-02T10:21:57;20.88;;;4.30;;
39858;SDS011;25528;47.810;12.960;2022-08-02T10:24:28;21.50;;;4.60;;
39858;SDS011;25528;47.810;12.960;2022-08-02T10:26:55;21.80;;;4.70;;
39858;SDS011;25528;47.810;12.960;2022-08-02T10:29:26;16.30;;;3.80;;
39858;SDS011;25528;47.810;12.960;2022-08-02T10:32:03;26.17;;;4.40;;
39858;SDS011;25528;47.810;12.960;2022-08-02T10:34:40;20.00;;;4.45;;
39858;SDS011;25528;47.810;12.960;2022-08-02T10:37:28;20.00;;;4.50;;
39858;SDS011;25528;47.810;12.960;2022-08-02T10:39:57;20.35;;;4.25;;
39858;SDS011;25528;47.810;12.960;2022-08-02T10:42:42;29.63;;;5.10;;
39858;SDS011;25528;47.810;12.960;2022-08-02T10:45:09;22.05;;;4.30;;
39858;SDS011;25528;47.810;12.960;2022-08-02T10:47:36;20.67;;;4.43;;
39858;SDS011;25528;47.810;12.960;2022-08-02T10:50:02;22.13;;;4.03;;
39858;SDS011;25528;47.810;12.960;2022-08-02T10:52:28;14.90;;;3.90;;
39858;SDS011;25528;47.810;12.960;2022-08-02T10:57:33;14.98;;;4.38;;
39858;SDS011;25528;47.810;12.960;2022-08-02T11:00:13;22.67;;;4.55;;
39858;SDS011;25528;47.810;12.960;2022-08-02T11:02:50;17.77;;;4.00;;
39858;SDS011;25528;47.810;12.960;2022-08-02T11:05:24;13.57;;;3.80;;
39858;SDS011;25528;47.810;12.960;2022-08-02T11:07:56;18.75;;;3.95;;
39858;SDS011;25528;47.810;12.960;2022-08-02T11:18:22;26.05;;;5.70;;
39858;SDS011;25528;47.810;12.960;2022-08-02T11:21:20;29.50;;;6.32;;
39858;SDS011;25528;47.810;12.960;2022-08-02T11:23:51;16.33;;;4.53;;
39858;SDS011;25528;47.810;12.960;2022-08-02T11:28:59;14.50;;;4.25;;
39858;SDS011;25528;47.810;12.960;2022-08-02T11:31:28;17.02;;;4.43;;
39858;SDS011;25528;47.810;12.960;2022-08-02T11:34:01;14.88;;;4.10;;
39858;SDS011;25528;47.810;12.960;2022-08-02T11:36:28;14.90;;;4.70;;
39858;SDS011;25528;47.810;12.960;2022-08-02T11:39:10;16.80;;;4.90;;
39858;SDS011;25528;47.810;12.960;2022-08-02T11:41:36;13.50;;;4.30;;
39858;SDS011;25528;47.810;12.960;2022-08-02T11:44:02;16.42;;;4.18;;
39858;SDS011;25528;47.810;12.960;2022-08-02T11:46:28;17.92;;;4.35;;
39858;SDS011;25528;47.810;12.960;2022-08-02T11:48:53;15.85;;;4.38;;
39858;SDS011;25528;47.810;12.960;2022-08-02T11:51:19;17.93;;;4.40;;
39858;SDS011;25528;47.810;12.960;2022-08-02T11:53:48;20.25;;;4.40;;
39858;SDS011;25528;47.810;12.960;2022-08-02T11:56:16;17.23;;;4.63;;
39858;SDS011;25528;47.810;12.960;2022-08-02T11:59:05;14.63;;;4.20;;
39858;SDS011;25528;47.810;12.960;2022-08-02T12:01:35;14.05;;;4.20;;
39858;SDS011;25528;47.810;12.960;2022-08-02T12:04:03;14.70;;;4.23;;
39858;SDS011;25528;47.810;12.960;2022-08-02T12:06:32;15.45;;;4.57;;
39858;SDS011;25528;47.810;12.960;2022-08-02T12:11:30;12.23;;;3.80;;
39858;SDS011;25528;47.810;12.960;2022-08-02T12:13:57;13.50;;;4.32;;
39858;SDS011;25528;47.810;12.960;2022-08-02T12:16:24;12.77;;;3.90;;
39858;SDS011;25528;47.810;12.960;2022-08-02T12:19:08;11.68;;;4.00;;
39858;SDS011;25528;47.810;12.960;2022-08-02T12:21:44;12.93;;;3.92;;
39858;SDS011;25528;47.810;12.960;2022-08-02T12:24:10;13.90;;;4.00;;
39858;SDS011;25528;47.810;12.960;2022-08-02T12:26:40;9.63;;;3.70;;
39858;SDS011;25528;47.810;12.960;2022-08-02T12:29:09;11.73;;;3.83;;
39858;SDS011;25528;47.810;12.960;2022-08-02T12:31:42;11.95;;;4.00;;
39858;SDS011;25528;47.810;12.960;2022-08-02T12:34:15;10.00;;;3.90;;
39858;SDS011;25528;47.810;12.960;2022-08-02T12:37:04;9.05;;;3.72;;
39858;SDS011;25528;47.810;12.960;2022-08-02T12:39:35;11.23;;;3.65;;
39858;SDS011;25528;47.810;12.960;2022-08-02T12:42:09;8.15;;;3.60;;
39858;SDS011;25528;47.810;12.960;2022-08-02T12:44:38;10.20;;;3.70;;
39858;SDS011;25528;47.810;12.960;2022-08-02T12:47:18;9.93;;;3.40;;
39858;SDS011;25528;47.810;12.960;2022-08-02T12:52:40;8.75;;;3.40;;
39858;SDS011;25528;47.810;12.960;2022-08-02T12:55:16;9.25;;;3.35;;
39858;SDS011;25528;47.810;12.960;2022-08-02T12:57:52;8.47;;;3.30;;
39858;SDS011;25528;47.810;12.960;2022-08-02T13:00:38;9.00;;;3.27;;
39858;SDS011;25528;47.810;12.960;2022-08-02T13:03:04;9.82;;;3.58;;
39858;SDS011;25528;47.810;12.960;2022-08-02T13:05:31;7.70;;;3.13;;
39858;SDS011;25528;47.810;12.960;2022-08-02T13:08:00;9.07;;;3.30;;
39858;SDS011;25528;47.810;12.960;2022-08-02T13:10:26;9.38;;;3.35;;
39858;SDS011;25528;47.810;12.960;2022-08-02T13:12:52;7.50;;;3.10;;
39858;SDS011;25528;47.810;12.960;2022-08-02T13:15:19;8.03;;;3.17;;
39858;SDS011;25528;47.810;12.960;2022-08-02T13:17:45;9.15;;;3.33;;
39858;SDS011;25528;47.810;12.960;2022-08-02T13:20:11;7.63;;;3.10;;
39858;SDS011;25528;47.810;12.960;2022-08-02T13:22:39;7.10;;;2.90;;
39858;SDS011;25528;47.810;12.960;2022-08-02T13:25:05;7.53;;;3.00;;
39858;SDS011;25528;47.810;12.960;2022-08-02T13:27:31;8.00;;;3.10;;
39858;SDS011;25528;47.810;12.960;2022-08-02T13:29:58;6.75;;;3.10;;
39858;SDS011;25528;47.810;12.960;2022-08-02T13:32:25;7.32;;;3.17;;
39858;SDS011;25528;47.810;12.960;2022-08-02T13:34:57;8.77;;;3.50;;
39858;SDS011;25528;47.810;12.960;2022-08-02T13:37:23;7.63;;;3.20;;
39858;SDS011;25528;47.810;12.960;2022-08-02T13:39:49;6.28;;;3.20;;
39858;SDS011;25528;47.810;12.960;2022-08-02T13:42:15;6.53;;;3.10;;
39858;SDS011;25528;47.810;12.960;2022-08-02T13:44:41;7.65;;;3.30;;
39858;SDS011;25528;47.810;12.960;2022-08-02T13:47:06;6.45;;;2.83;;
39858;SDS011;25528;47.810;12.960;2022-08-02T13:49:35;7.28;;;3.03;;
39858;SDS011;25528;47.810;12.960;2022-08-02T13:52:05;6.97;;;2.90;;
39858;SDS011;25528;47.810;12.960;2022-08-02T13:54:31;5.95;;;2.92;;
39858;SDS011;25528;47.810;12.960;2022-08-02T13:56:56;7.07;;;2.77;;
39858;SDS011;25528;47.810;12.960;2022-08-02T13:59:22;6.40;;;3.03;;
39858;SDS011;25528;47.810;12.960;2022-08-02T14:01:48;6.60;;;2.77;;
39858;SDS011;25528;47.810;12.960;2022-08-02T14:04:13;6.88;;;2.92;;
39858;SDS011;25528;47.810;12.960;2022-08-02T14:06:39;7.80;;;3.30;;
39858;SDS011;25528;47.810;12.960;2022-08-02T14:09:05;7.20;;;3.20;;
39858;SDS011;25528;47.810;12.960;2022-08-02T14:11:30;4.60;;;2.70;;
39858;SDS011;25528;47.810;12.960;2022-08-02T14:13:58;6.30;;;2.60;;
39858;SDS011;25528;47.810;12.960;2022-08-02T14:16:23;5.57;;;2.80;;
39858;SDS011;25528;47.810;12.960;2022-08-02T14:18:49;6.53;;;2.70;;
39858;SDS011;25528;47.810;12.960;2022-08-02T14:21:15;7.35;;;2.72;;
39858;SDS011;25528;47.810;12.960;2022-08-02T14:23:40;16.92;;;3.10;;
39858;SDS011;25528;47.810;12.960;2022-08-02T14:26:06;11.57;;;3.03;;
39858;SDS011;25528;47.810;12.960;2022-08-02T14:28:34;16.88;;;3.58;;
39858;SDS011;25528;47.810;12.960;2022-08-02T14:31:00;12.15;;;3.70;;
39858;SDS011;25528;47.810;12.960;2022-08-02T14:33:26;14.35;;;3.67;;
39858;SDS011;25528;47.810;12.960;2022-08-02T14:35:51;20.52;;;4.40;;
39858;SDS011;25528;47.810;12.960;2022-08-02T14:38:17;19.23;;;3.80;;
39858;SDS011;25528;47.810;12.960;2022-08-02T14:40:43;25.13;;;5.10;;
39858;SDS011;25528;47.810;12.960;2022-08-02T14:43:10;21.60;;;4.40;;
39858;SDS011;25528;47.810;12.960;2022-08-02T14:45:35;23.17;;;4.70;;
39858;SDS011;25528;47.810;12.960;2022-08-02T14:48:01;18.03;;;4.40;;
39858;SDS011;25528;47.810;12.960;2022-08-02T14:50:27;20.80;;;4.57;;
39858;SDS011;25528;47.810;12.960;2022-08-02T14:52:52;16.87;;;4.40;;
39858;SDS011;25528;47.810;12.960;2022-08-02T14:55:18;18.75;;;4.30;;
39858;SDS011;25528;47.810;12.960;2022-08-02T14:57:44;44.05;;;7.00;;
39858;SDS011;25528;47.810;12.960;2022-08-02T15:00:09;45.47;;;7.50;;
39858;SDS011;25528;47.810;12.960;2022-08-02T15:02:36;30.30;;;5.18;;
39858;SDS011;25528;47.810;12.960;2022-08-02T15:05:01;30.23;;;5.70;;
39858;SDS011;25528;47.810;12.960;2022-08-02T15:07:27;26.20;;;4.97;;
39858;SDS011;25528;47.810;12.960;2022-08-02T15:09:53;21.10;;;4.88;;